This is the latest recevied weather packets stored in our database for station/object PU2UHW-13. If no packets are shown the sender has not sent any weather packets the latest 1 day(s).
| Time | Temp. | Humidity | Pressure | Rain* | Wind** | Luminosity | Snow |
|---|---|---|---|---|---|---|---|
| 1778085354 | 24.44° C | 58% | 1020 hPa | - | - | - | - |
| 1778084994 | 24.44° C | 57% | 1019.9 hPa | - | - | - | - |
| 1778084634 | 24.44° C | 58% | 1020 hPa | - | - | - | - |
| 1778084455 | 23.89° C | 57% | 1020.1 hPa | - | - | - | - |
| 1778084095 | 23.33° C | 61% | 1020.5 hPa | - | - | - | - |
| 1778082835 | 23.89° C | 60% | 1020.7 hPa | - | - | - | - |
| 1778081214 | 23.89° C | 61% | 1021.2 hPa | - | - | - | - |
| 1778081037 | 23.89° C | 61% | 1021.3 hPa | - | - | - | - |
| 1778079955 | 23.89° C | 62% | 1021.6 hPa | - | - | - | - |
| 1778076895 | 22.22° C | 69% | 1023.2 hPa | - | - | - | - |
| 1778075634 | 21.11° C | 74% | 1023.8 hPa | - | - | - | - |
| 1778073115 | 20° C | 75% | 1024.9 hPa | - | - | - | - |
| 1778072574 | 19.44° C | 75% | 1025 hPa | - | - | - | - |
| 1778071135 | 18.33° C | 77% | 1025.5 hPa | - | - | - | - |
| 1778070415 | 17.78° C | 79% | 1025.6 hPa | - | - | - | - |
| 1778070055 | 17.78° C | 79% | 1025.6 hPa | - | - | - | - |
| 1778069335 | 17.22° C | 79% | 1025.8 hPa | - | - | - | - |
| 1778066454 | 16.11° C | 81% | 1026.1 hPa | - | - | - | - |
| 1778065374 | 16.11° C | 81% | 1026.1 hPa | - | - | - | - |
| 1778063034 | 15.56° C | 84% | 1025.8 hPa | - | - | - | - |
| 1778062854 | 15° C | 85% | 1025.9 hPa | - | - | - | - |
| 1778062674 | 16.11° C | 80% | 1025.6 hPa | - | - | - | - |
| 1778062314 | 16.11° C | 82% | 1025.6 hPa | - | - | - | - |
| 1778061234 | 15° C | 85% | 1026.1 hPa | - | - | - | - |
| 1778060875 | 15.56° C | 81% | 1025.8 hPa | - | - | - | - |
* Rain since midnight (hover to see other rain measurements)
** Current wind speed in m/s (hover to see current wind gust speed)